sensor_id;sensor_type;location;lat;lon;timestamp;P1;durP1;ratioP1;P2;durP2;ratioP2
13785;SDS011;47474;48.824;9.384;2023-01-01T00:00:13;33.47;;;24.20;;
13785;SDS011;47474;48.824;9.384;2023-01-01T00:02:41;33.77;;;24.03;;
13785;SDS011;47474;48.824;9.384;2023-01-01T00:05:07;25.40;;;20.40;;
13785;SDS011;47474;48.824;9.384;2023-01-01T00:07:34;27.47;;;21.40;;
13785;SDS011;47474;48.824;9.384;2023-01-01T00:10:01;25.97;;;20.67;;
13785;SDS011;47474;48.824;9.384;2023-01-01T00:12:45;25.13;;;19.10;;
13785;SDS011;47474;48.824;9.384;2023-01-01T00:15:11;25.70;;;19.17;;
13785;SDS011;47474;48.824;9.384;2023-01-01T00:17:38;19.90;;;16.93;;
13785;SDS011;47474;48.824;9.384;2023-01-01T00:20:06;21.77;;;16.93;;
13785;SDS011;47474;48.824;9.384;2023-01-01T00:22:33;25.70;;;17.50;;
13785;SDS011;47474;48.824;9.384;2023-01-01T00:25:00;24.10;;;17.17;;
13785;SDS011;47474;48.824;9.384;2023-01-01T00:27:26;22.43;;;16.00;;
13785;SDS011;47474;48.824;9.384;2023-01-01T00:29:53;20.37;;;15.37;;
13785;SDS011;47474;48.824;9.384;2023-01-01T00:32:19;17.20;;;13.57;;
13785;SDS011;47474;48.824;9.384;2023-01-01T00:34:46;16.13;;;13.37;;
13785;SDS011;47474;48.824;9.384;2023-01-01T00:37:14;18.43;;;12.37;;
13785;SDS011;47474;48.824;9.384;2023-01-01T00:39:42;13.30;;;9.43;;
13785;SDS011;47474;48.824;9.384;2023-01-01T00:42:08;14.40;;;10.40;;
13785;SDS011;47474;48.824;9.384;2023-01-01T00:44:35;11.67;;;8.57;;
13785;SDS011;47474;48.824;9.384;2023-01-01T00:47:01;10.10;;;7.17;;
13785;SDS011;47474;48.824;9.384;2023-01-01T00:49:28;8.17;;;6.73;;
13785;SDS011;47474;48.824;9.384;2023-01-01T00:51:54;10.97;;;7.13;;
13785;SDS011;47474;48.824;9.384;2023-01-01T00:54:22;9.90;;;6.73;;
13785;SDS011;47474;48.824;9.384;2023-01-01T00:56:49;8.30;;;7.33;;
13785;SDS011;47474;48.824;9.384;2023-01-01T00:59:15;9.00;;;7.27;;
13785;SDS011;47474;48.824;9.384;2023-01-01T01:01:42;8.20;;;6.63;;
13785;SDS011;47474;48.824;9.384;2023-01-01T01:04:08;8.67;;;6.73;;
13785;SDS011;47474;48.824;9.384;2023-01-01T01:06:35;6.60;;;5.90;;
13785;SDS011;47474;48.824;9.384;2023-01-01T01:09:02;8.07;;;6.60;;
13785;SDS011;47474;48.824;9.384;2023-01-01T01:11:32;10.38;;;7.07;;
13785;SDS011;47474;48.824;9.384;2023-01-01T01:13:58;9.02;;;6.30;;
13785;SDS011;47474;48.824;9.384;2023-01-01T01:16:26;9.73;;;7.85;;
13785;SDS011;47474;48.824;9.384;2023-01-01T01:18:54;10.82;;;7.50;;
13785;SDS011;47474;48.824;9.384;2023-01-01T01:21:23;9.25;;;7.05;;
13785;SDS011;47474;48.824;9.384;2023-01-01T01:23:51;9.00;;;7.30;;
13785;SDS011;47474;48.824;9.384;2023-01-01T01:26:19;10.67;;;7.30;;
13785;SDS011;47474;48.824;9.384;2023-01-01T01:28:49;10.40;;;8.02;;
13785;SDS011;47474;48.824;9.384;2023-01-01T01:31:16;10.77;;;7.35;;
13785;SDS011;47474;48.824;9.384;2023-01-01T01:33:43;9.32;;;7.63;;
13785;SDS011;47474;48.824;9.384;2023-01-01T01:36:09;10.63;;;7.97;;
13785;SDS011;47474;48.824;9.384;2023-01-01T01:38:36;10.07;;;7.93;;
13785;SDS011;47474;48.824;9.384;2023-01-01T01:41:03;8.20;;;6.95;;
13785;SDS011;47474;48.824;9.384;2023-01-01T01:43:45;12.88;;;8.27;;
13785;SDS011;47474;48.824;9.384;2023-01-01T01:46:18;10.10;;;7.95;;
13785;SDS011;47474;48.824;9.384;2023-01-01T01:48:47;9.80;;;8.00;;
13785;SDS011;47474;48.824;9.384;2023-01-01T01:51:15;11.90;;;8.30;;
13785;SDS011;47474;48.824;9.384;2023-01-01T01:53:44;11.07;;;7.75;;
13785;SDS011;47474;48.824;9.384;2023-01-01T01:56:12;10.93;;;8.00;;
13785;SDS011;47474;48.824;9.384;2023-01-01T01:58:41;11.23;;;8.38;;
13785;SDS011;47474;48.824;9.384;2023-01-01T02:01:09;11.10;;;8.18;;
13785;SDS011;47474;48.824;9.384;2023-01-01T02:03:36;12.10;;;8.87;;
13785;SDS011;47474;48.824;9.384;2023-01-01T02:06:06;12.70;;;8.87;;
13785;SDS011;47474;48.824;9.384;2023-01-01T02:08:32;12.13;;;8.77;;
13785;SDS011;47474;48.824;9.384;2023-01-01T02:10:59;10.75;;;7.85;;
13785;SDS011;47474;48.824;9.384;2023-01-01T02:13:26;8.13;;;7.03;;
13785;SDS011;47474;48.824;9.384;2023-01-01T02:15:53;15.10;;;8.97;;
13785;SDS011;47474;48.824;9.384;2023-01-01T02:18:24;8.48;;;7.20;;
13785;SDS011;47474;48.824;9.384;2023-01-01T02:20:58;13.27;;;8.53;;
13785;SDS011;47474;48.824;9.384;2023-01-01T02:23:30;13.63;;;8.10;;
13785;SDS011;47474;48.824;9.384;2023-01-01T02:29:08;12.77;;;9.68;;
13785;SDS011;47474;48.824;9.384;2023-01-01T02:31:58;11.93;;;9.07;;
13785;SDS011;47474;48.824;9.384;2023-01-01T02:34:28;11.50;;;8.83;;
13785;SDS011;47474;48.824;9.384;2023-01-01T02:36:57;12.07;;;8.10;;
13785;SDS011;47474;48.824;9.384;2023-01-01T02:39:26;12.77;;;8.80;;
13785;SDS011;47474;48.824;9.384;2023-01-01T02:41:55;13.03;;;9.33;;
13785;SDS011;47474;48.824;9.384;2023-01-01T02:44:25;11.37;;;8.60;;
13785;SDS011;47474;48.824;9.384;2023-01-01T02:46:52;12.17;;;8.60;;
13785;SDS011;47474;48.824;9.384;2023-01-01T02:49:18;10.27;;;8.33;;
13785;SDS011;47474;48.824;9.384;2023-01-01T02:51:49;11.50;;;8.57;;
13785;SDS011;47474;48.824;9.384;2023-01-01T02:54:24;12.33;;;7.77;;
13785;SDS011;47474;48.824;9.384;2023-01-01T02:56:58;11.27;;;7.70;;
13785;SDS011;47474;48.824;9.384;2023-01-01T02:59:34;12.17;;;7.67;;
13785;SDS011;47474;48.824;9.384;2023-01-01T03:02:28;9.63;;;7.00;;
13785;SDS011;47474;48.824;9.384;2023-01-01T03:05:02;7.10;;;5.77;;
13785;SDS011;47474;48.824;9.384;2023-01-01T03:07:35;9.40;;;6.55;;
13785;SDS011;47474;48.824;9.384;2023-01-01T03:10:08;8.57;;;6.07;;
13785;SDS011;47474;48.824;9.384;2023-01-01T03:12:41;8.90;;;6.57;;
13785;SDS011;47474;48.824;9.384;2023-01-01T03:15:13;8.27;;;6.00;;
13785;SDS011;47474;48.824;9.384;2023-01-01T03:17:44;8.48;;;5.90;;
13785;SDS011;47474;48.824;9.384;2023-01-01T03:20:14;7.88;;;6.25;;
13785;SDS011;47474;48.824;9.384;2023-01-01T03:22:43;8.63;;;6.40;;
13785;SDS011;47474;48.824;9.384;2023-01-01T03:25:11;8.15;;;5.78;;
13785;SDS011;47474;48.824;9.384;2023-01-01T03:27:40;7.97;;;6.03;;
13785;SDS011;47474;48.824;9.384;2023-01-01T03:30:09;9.23;;;5.75;;
13785;SDS011;47474;48.824;9.384;2023-01-01T03:32:39;8.40;;;5.40;;
13785;SDS011;47474;48.824;9.384;2023-01-01T03:35:30;6.65;;;5.88;;
13785;SDS011;47474;48.824;9.384;2023-01-01T03:38:00;6.88;;;5.30;;
13785;SDS011;47474;48.824;9.384;2023-01-01T03:40:28;6.33;;;5.47;;
13785;SDS011;47474;48.824;9.384;2023-01-01T03:42:56;5.93;;;5.30;;
13785;SDS011;47474;48.824;9.384;2023-01-01T03:45:28;6.78;;;5.07;;
13785;SDS011;47474;48.824;9.384;2023-01-01T03:47:57;6.35;;;5.25;;
13785;SDS011;47474;48.824;9.384;2023-01-01T03:50:26;7.10;;;5.87;;
13785;SDS011;47474;48.824;9.384;2023-01-01T03:52:56;6.57;;;5.33;;
13785;SDS011;47474;48.824;9.384;2023-01-01T03:55:28;8.10;;;5.75;;
13785;SDS011;47474;48.824;9.384;2023-01-01T03:57:59;8.40;;;5.67;;
13785;SDS011;47474;48.824;9.384;2023-01-01T04:00:29;7.60;;;5.13;;
13785;SDS011;47474;48.824;9.384;2023-01-01T04:03:01;7.33;;;5.50;;
13785;SDS011;47474;48.824;9.384;2023-01-01T04:05:31;6.07;;;4.90;;
13785;SDS011;47474;48.824;9.384;2023-01-01T04:08:02;7.13;;;5.20;;
13785;SDS011;47474;48.824;9.384;2023-01-01T04:10:29;5.40;;;4.70;;
13785;SDS011;47474;48.824;9.384;2023-01-01T04:12:57;6.03;;;4.60;;
13785;SDS011;47474;48.824;9.384;2023-01-01T04:15:25;5.47;;;4.20;;
13785;SDS011;47474;48.824;9.384;2023-01-01T04:17:52;8.50;;;5.00;;
13785;SDS011;47474;48.824;9.384;2023-01-01T04:20:20;5.83;;;4.40;;
13785;SDS011;47474;48.824;9.384;2023-01-01T04:22:47;5.53;;;4.27;;
13785;SDS011;47474;48.824;9.384;2023-01-01T04:25:14;5.87;;;4.10;;
13785;SDS011;47474;48.824;9.384;2023-01-01T04:27:41;5.17;;;3.93;;
13785;SDS011;47474;48.824;9.384;2023-01-01T04:30:08;4.38;;;3.85;;
13785;SDS011;47474;48.824;9.384;2023-01-01T04:32:37;5.80;;;4.23;;
13785;SDS011;47474;48.824;9.384;2023-01-01T04:35:04;5.67;;;4.30;;
13785;SDS011;47474;48.824;9.384;2023-01-01T04:37:33;8.33;;;4.57;;
13785;SDS011;47474;48.824;9.384;2023-01-01T04:40:00;4.60;;;3.57;;
13785;SDS011;47474;48.824;9.384;2023-01-01T04:42:26;4.33;;;3.63;;
13785;SDS011;47474;48.824;9.384;2023-01-01T04:44:53;5.53;;;3.53;;
13785;SDS011;47474;48.824;9.384;2023-01-01T04:47:19;5.83;;;4.07;;
13785;SDS011;47474;48.824;9.384;2023-01-01T04:49:46;4.47;;;3.60;;
13785;SDS011;47474;48.824;9.384;2023-01-01T04:52:12;5.23;;;4.00;;
13785;SDS011;47474;48.824;9.384;2023-01-01T04:54:40;5.13;;;3.50;;
13785;SDS011;47474;48.824;9.384;2023-01-01T04:57:07;3.57;;;3.07;;
13785;SDS011;47474;48.824;9.384;2023-01-01T04:59:33;6.00;;;4.10;;
13785;SDS011;47474;48.824;9.384;2023-01-01T05:02:00;5.07;;;3.50;;
13785;SDS011;47474;48.824;9.384;2023-01-01T05:04:26;5.47;;;3.47;;
13785;SDS011;47474;48.824;9.384;2023-01-01T05:06:53;5.90;;;3.77;;
13785;SDS011;47474;48.824;9.384;2023-01-01T05:09:19;4.07;;;3.63;;
13785;SDS011;47474;48.824;9.384;2023-01-01T05:11:47;4.43;;;3.27;;
13785;SDS011;47474;48.824;9.384;2023-01-01T05:14:13;4.93;;;3.77;;
13785;SDS011;47474;48.824;9.384;2023-01-01T05:16:40;3.73;;;3.20;;
13785;SDS011;47474;48.824;9.384;2023-01-01T05:19:07;4.00;;;3.40;;
13785;SDS011;47474;48.824;9.384;2023-01-01T05:21:35;4.77;;;3.60;;
13785;SDS011;47474;48.824;9.384;2023-01-01T05:24:04;5.57;;;3.47;;
13785;SDS011;47474;48.824;9.384;2023-01-01T05:26:32;5.97;;;2.93;;
13785;SDS011;47474;48.824;9.384;2023-01-01T05:29:01;8.37;;;3.50;;
13785;SDS011;47474;48.824;9.384;2023-01-01T05:31:29;4.70;;;3.20;;
13785;SDS011;47474;48.824;9.384;2023-01-01T05:33:57;7.40;;;2.90;;
13785;SDS011;47474;48.824;9.384;2023-01-01T05:36:24;6.13;;;3.50;;
13785;SDS011;47474;48.824;9.384;2023-01-01T05:38:52;4.57;;;2.90;;
13785;SDS011;47474;48.824;9.384;2023-01-01T05:41:19;4.23;;;3.10;;
13785;SDS011;47474;48.824;9.384;2023-01-01T05:43:46;3.53;;;2.70;;
13785;SDS011;47474;48.824;9.384;2023-01-01T05:46:15;3.67;;;2.90;;
13785;SDS011;47474;48.824;9.384;2023-01-01T05:48:42;3.40;;;2.67;;
13785;SDS011;47474;48.824;9.384;2023-01-01T05:51:09;4.03;;;2.70;;
13785;SDS011;47474;48.824;9.384;2023-01-01T05:53:37;3.40;;;2.70;;
13785;SDS011;47474;48.824;9.384;2023-01-01T05:56:04;3.53;;;2.40;;
13785;SDS011;47474;48.824;9.384;2023-01-01T05:58:32;3.03;;;2.23;;
13785;SDS011;47474;48.824;9.384;2023-01-01T06:01:04;3.70;;;2.37;;
13785;SDS011;47474;48.824;9.384;2023-01-01T06:03:33;2.57;;;2.30;;
13785;SDS011;47474;48.824;9.384;2023-01-01T06:06:01;4.00;;;2.45;;
13785;SDS011;47474;48.824;9.384;2023-01-01T06:08:29;3.27;;;2.37;;
13785;SDS011;47474;48.824;9.384;2023-01-01T06:10:56;2.87;;;2.27;;
13785;SDS011;47474;48.824;9.384;2023-01-01T06:13:24;4.57;;;2.50;;
13785;SDS011;47474;48.824;9.384;2023-01-01T06:15:51;2.93;;;2.20;;
13785;SDS011;47474;48.824;9.384;2023-01-01T06:18:19;3.30;;;2.20;;
13785;SDS011;47474;48.824;9.384;2023-01-01T06:20:46;2.92;;;2.15;;
13785;SDS011;47474;48.824;9.384;2023-01-01T06:23:13;4.07;;;2.42;;
13785;SDS011;47474;48.824;9.384;2023-01-01T06:25:39;2.97;;;2.15;;
13785;SDS011;47474;48.824;9.384;2023-01-01T06:28:06;5.32;;;2.50;;
13785;SDS011;47474;48.824;9.384;2023-01-01T06:30:33;3.30;;;2.28;;
13785;SDS011;47474;48.824;9.384;2023-01-01T06:32:59;4.78;;;2.20;;
13785;SDS011;47474;48.824;9.384;2023-01-01T06:35:26;3.75;;;2.50;;
13785;SDS011;47474;48.824;9.384;2023-01-01T06:37:53;3.13;;;2.65;;
13785;SDS011;47474;48.824;9.384;2023-01-01T06:40:20;3.10;;;2.20;;
13785;SDS011;47474;48.824;9.384;2023-01-01T06:42:46;3.30;;;2.40;;
13785;SDS011;47474;48.824;9.384;2023-01-01T06:45:13;3.10;;;2.38;;
13785;SDS011;47474;48.824;9.384;2023-01-01T06:47:39;3.03;;;2.15;;
13785;SDS011;47474;48.824;9.384;2023-01-01T06:50:06;3.47;;;2.10;;
13785;SDS011;47474;48.824;9.384;2023-01-01T06:52:33;4.20;;;2.58;;
13785;SDS011;47474;48.824;9.384;2023-01-01T06:55:01;3.37;;;2.60;;
13785;SDS011;47474;48.824;9.384;2023-01-01T06:57:27;3.92;;;2.55;;
13785;SDS011;47474;48.824;9.384;2023-01-01T06:59:54;4.70;;;2.85;;
13785;SDS011;47474;48.824;9.384;2023-01-01T07:02:20;3.17;;;2.47;;
13785;SDS011;47474;48.824;9.384;2023-01-01T07:04:47;5.22;;;2.50;;
13785;SDS011;47474;48.824;9.384;2023-01-01T07:07:14;2.75;;;2.42;;
13785;SDS011;47474;48.824;9.384;2023-01-01T07:09:40;3.70;;;2.50;;
13785;SDS011;47474;48.824;9.384;2023-01-01T07:12:08;3.77;;;2.57;;
13785;SDS011;47474;48.824;9.384;2023-01-01T07:14:34;3.13;;;2.45;;
13785;SDS011;47474;48.824;9.384;2023-01-01T07:17:01;3.75;;;2.50;;
13785;SDS011;47474;48.824;9.384;2023-01-01T07:19:27;2.50;;;2.20;;
13785;SDS011;47474;48.824;9.384;2023-01-01T07:21:54;4.03;;;2.60;;
13785;SDS011;47474;48.824;9.384;2023-01-01T07:24:20;4.60;;;2.10;;
13785;SDS011;47474;48.824;9.384;2023-01-01T07:26:48;4.60;;;2.33;;
13785;SDS011;47474;48.824;9.384;2023-01-01T07:29:15;3.17;;;2.37;;
13785;SDS011;47474;48.824;9.384;2023-01-01T07:31:43;2.67;;;2.30;;
13785;SDS011;47474;48.824;9.384;2023-01-01T07:34:11;3.67;;;2.63;;
13785;SDS011;47474;48.824;9.384;2023-01-01T07:36:39;2.93;;;2.27;;
13785;SDS011;47474;48.824;9.384;2023-01-01T07:39:06;3.00;;;2.33;;
13785;SDS011;47474;48.824;9.384;2023-01-01T07:41:32;3.88;;;2.30;;
13785;SDS011;47474;48.824;9.384;2023-01-01T07:43:59;4.70;;;2.33;;
13785;SDS011;47474;48.824;9.384;2023-01-01T07:46:27;4.10;;;2.40;;
13785;SDS011;47474;48.824;9.384;2023-01-01T07:48:53;2.85;;;2.25;;
13785;SDS011;47474;48.824;9.384;2023-01-01T07:51:20;2.72;;;2.08;;
13785;SDS011;47474;48.824;9.384;2023-01-01T07:53:46;4.70;;;2.92;;
13785;SDS011;47474;48.824;9.384;2023-01-01T07:56:13;3.08;;;2.22;;
13785;SDS011;47474;48.824;9.384;2023-01-01T07:58:40;4.07;;;2.13;;
13785;SDS011;47474;48.824;9.384;2023-01-01T08:01:08;3.50;;;2.72;;
13785;SDS011;47474;48.824;9.384;2023-01-01T08:03:36;4.27;;;2.50;;
13785;SDS011;47474;48.824;9.384;2023-01-01T08:06:05;7.10;;;3.00;;
13785;SDS011;47474;48.824;9.384;2023-01-01T08:08:32;2.97;;;2.53;;
13785;SDS011;47474;48.824;9.384;2023-01-01T08:10:59;6.05;;;2.90;;
13785;SDS011;47474;48.824;9.384;2023-01-01T08:13:25;6.87;;;2.40;;
13785;SDS011;47474;48.824;9.384;2023-01-01T08:15:52;6.22;;;3.10;;
13785;SDS011;47474;48.824;9.384;2023-01-01T08:18:19;4.65;;;3.20;;
13785;SDS011;47474;48.824;9.384;2023-01-01T08:20:47;5.17;;;3.30;;
13785;SDS011;47474;48.824;9.384;2023-01-01T08:23:14;4.27;;;3.50;;
13785;SDS011;47474;48.824;9.384;2023-01-01T08:25:40;4.90;;;3.17;;
13785;SDS011;47474;48.824;9.384;2023-01-01T08:28:07;5.07;;;3.17;;
13785;SDS011;47474;48.824;9.384;2023-01-01T08:30:34;3.38;;;3.00;;
13785;SDS011;47474;48.824;9.384;2023-01-01T08:33:00;5.22;;;3.42;;
13785;SDS011;47474;48.824;9.384;2023-01-01T08:35:27;4.77;;;3.00;;
13785;SDS011;47474;48.824;9.384;2023-01-01T08:37:54;3.90;;;2.90;;
13785;SDS011;47474;48.824;9.384;2023-01-01T08:40:21;4.70;;;2.87;;
13785;SDS011;47474;48.824;9.384;2023-01-01T08:42:48;6.23;;;3.23;;
13785;SDS011;47474;48.824;9.384;2023-01-01T08:45:14;4.33;;;2.40;;
13785;SDS011;47474;48.824;9.384;2023-01-01T08:47:42;4.07;;;2.60;;
13785;SDS011;47474;48.824;9.384;2023-01-01T08:50:08;3.50;;;2.37;;
13785;SDS011;47474;48.824;9.384;2023-01-01T08:52:35;3.77;;;2.50;;
13785;SDS011;47474;48.824;9.384;2023-01-01T08:55:03;4.10;;;2.78;;
13785;SDS011;47474;48.824;9.384;2023-01-01T08:57:30;4.83;;;2.73;;
13785;SDS011;47474;48.824;9.384;2023-01-01T08:59:56;3.27;;;2.37;;
13785;SDS011;47474;48.824;9.384;2023-01-01T09:02:23;5.33;;;2.70;;
13785;SDS011;47474;48.824;9.384;2023-01-01T09:04:49;3.43;;;2.47;;
13785;SDS011;47474;48.824;9.384;2023-01-01T09:07:16;4.40;;;2.50;;
13785;SDS011;47474;48.824;9.384;2023-01-01T09:09:42;3.77;;;2.97;;
13785;SDS011;47474;48.824;9.384;2023-01-01T09:12:10;4.40;;;3.00;;
13785;SDS011;47474;48.824;9.384;2023-01-01T09:14:40;3.77;;;2.87;;
13785;SDS011;47474;48.824;9.384;2023-01-01T09:17:07;3.53;;;2.63;;
13785;SDS011;47474;48.824;9.384;2023-01-01T09:19:33;4.80;;;2.35;;
13785;SDS011;47474;48.824;9.384;2023-01-01T09:22:00;3.20;;;2.90;;
13785;SDS011;47474;48.824;9.384;2023-01-01T09:24:26;4.50;;;2.83;;
13785;SDS011;47474;48.824;9.384;2023-01-01T09:26:53;4.80;;;2.93;;
13785;SDS011;47474;48.824;9.384;2023-01-01T09:29:20;6.47;;;3.15;;
13785;SDS011;47474;48.824;9.384;2023-01-01T09:31:48;2.38;;;2.17;;
13785;SDS011;47474;48.824;9.384;2023-01-01T09:34:15;4.05;;;2.90;;
13785;SDS011;47474;48.824;9.384;2023-01-01T09:36:41;4.47;;;2.80;;
13785;SDS011;47474;48.824;9.384;2023-01-01T09:39:09;3.28;;;2.40;;
13785;SDS011;47474;48.824;9.384;2023-01-01T09:41:49;4.07;;;2.67;;
13785;SDS011;47474;48.824;9.384;2023-01-01T09:44:25;3.78;;;2.25;;
13785;SDS011;47474;48.824;9.384;2023-01-01T09:47:01;3.25;;;2.70;;
13785;SDS011;47474;48.824;9.384;2023-01-01T09:49:30;3.58;;;2.65;;
13785;SDS011;47474;48.824;9.384;2023-01-01T09:52:01;4.45;;;2.85;;
13785;SDS011;47474;48.824;9.384;2023-01-01T09:54:30;3.65;;;2.33;;
13785;SDS011;47474;48.824;9.384;2023-01-01T09:56:58;2.63;;;2.07;;
13785;SDS011;47474;48.824;9.384;2023-01-01T09:59:27;5.87;;;2.77;;
13785;SDS011;47474;48.824;9.384;2023-01-01T10:01:55;4.15;;;2.80;;
13785;SDS011;47474;48.824;9.384;2023-01-01T10:04:32;3.47;;;2.57;;
13785;SDS011;47474;48.824;9.384;2023-01-01T10:07:07;2.60;;;2.40;;
13785;SDS011;47474;48.824;9.384;2023-01-01T10:09:39;3.72;;;2.40;;
13785;SDS011;47474;48.824;9.384;2023-01-01T10:12:10;2.70;;;2.40;;
13785;SDS011;47474;48.824;9.384;2023-01-01T10:14:44;3.60;;;2.53;;
13785;SDS011;47474;48.824;9.384;2023-01-01T10:17:12;3.97;;;2.50;;
13785;SDS011;47474;48.824;9.384;2023-01-01T10:19:42;4.22;;;2.85;;
13785;SDS011;47474;48.824;9.384;2023-01-01T10:22:12;2.80;;;2.42;;
13785;SDS011;47474;48.824;9.384;2023-01-01T10:24:42;3.70;;;2.60;;
13785;SDS011;47474;48.824;9.384;2023-01-01T10:27:12;5.15;;;2.80;;
13785;SDS011;47474;48.824;9.384;2023-01-01T10:29:50;4.30;;;2.67;;
13785;SDS011;47474;48.824;9.384;2023-01-01T10:32:18;5.20;;;2.20;;
13785;SDS011;47474;48.824;9.384;2023-01-01T10:34:45;4.60;;;3.30;;
13785;SDS011;47474;48.824;9.384;2023-01-01T10:37:13;2.75;;;2.30;;
13785;SDS011;47474;48.824;9.384;2023-01-01T10:39:40;3.47;;;2.65;;
13785;SDS011;47474;48.824;9.384;2023-01-01T10:42:09;3.28;;;2.60;;
13785;SDS011;47474;48.824;9.384;2023-01-01T10:44:36;3.40;;;2.22;;
13785;SDS011;47474;48.824;9.384;2023-01-01T10:47:09;4.07;;;2.75;;
13785;SDS011;47474;48.824;9.384;2023-01-01T10:49:53;3.72;;;2.60;;
13785;SDS011;47474;48.824;9.384;2023-01-01T10:52:22;4.15;;;2.40;;
13785;SDS011;47474;48.824;9.384;2023-01-01T10:54:50;4.90;;;2.45;;
13785;SDS011;47474;48.824;9.384;2023-01-01T10:57:17;7.10;;;2.58;;
13785;SDS011;47474;48.824;9.384;2023-01-01T10:59:47;3.42;;;2.53;;
13785;SDS011;47474;48.824;9.384;2023-01-01T11:02:15;3.85;;;2.95;;
13785;SDS011;47474;48.824;9.384;2023-01-01T11:04:44;4.85;;;2.65;;
13785;SDS011;47474;48.824;9.384;2023-01-01T11:07:13;7.65;;;2.72;;
13785;SDS011;47474;48.824;9.384;2023-01-01T11:09:46;6.20;;;2.80;;
13785;SDS011;47474;48.824;9.384;2023-01-01T11:12:15;4.30;;;2.60;;
13785;SDS011;47474;48.824;9.384;2023-01-01T11:14:47;4.75;;;2.50;;
13785;SDS011;47474;48.824;9.384;2023-01-01T11:17:20;5.53;;;2.72;;
13785;SDS011;47474;48.824;9.384;2023-01-01T11:19:47;4.68;;;2.35;;
13785;SDS011;47474;48.824;9.384;2023-01-01T11:22:33;5.13;;;3.30;;
13785;SDS011;47474;48.824;9.384;2023-01-01T11:25:02;2.75;;;2.30;;
13785;SDS011;47474;48.824;9.384;2023-01-01T11:27:35;5.55;;;2.65;;
13785;SDS011;47474;48.824;9.384;2023-01-01T11:30:13;3.30;;;2.40;;
13785;SDS011;47474;48.824;9.384;2023-01-01T11:32:46;3.78;;;2.20;;
13785;SDS011;47474;48.824;9.384;2023-01-01T11:35:14;3.30;;;2.00;;
13785;SDS011;47474;48.824;9.384;2023-01-01T11:37:44;5.57;;;2.17;;
13785;SDS011;47474;48.824;9.384;2023-01-01T11:40:14;5.20;;;2.15;;
13785;SDS011;47474;48.824;9.384;2023-01-01T11:42:44;3.42;;;2.00;;
13785;SDS011;47474;48.824;9.384;2023-01-01T11:45:13;4.05;;;2.30;;
13785;SDS011;47474;48.824;9.384;2023-01-01T11:47:42;5.90;;;2.30;;
13785;SDS011;47474;48.824;9.384;2023-01-01T11:50:18;2.92;;;2.10;;
13785;SDS011;47474;48.824;9.384;2023-01-01T11:52:48;2.63;;;1.90;;
13785;SDS011;47474;48.824;9.384;2023-01-01T11:55:18;3.20;;;2.08;;
13785;SDS011;47474;48.824;9.384;2023-01-01T11:57:50;4.15;;;2.25;;
13785;SDS011;47474;48.824;9.384;2023-01-01T12:00:21;3.28;;;2.08;;
13785;SDS011;47474;48.824;9.384;2023-01-01T12:02:49;4.88;;;2.10;;
13785;SDS011;47474;48.824;9.384;2023-01-01T12:05:21;4.20;;;2.50;;
13785;SDS011;47474;48.824;9.384;2023-01-01T12:07:49;3.92;;;2.08;;
13785;SDS011;47474;48.824;9.384;2023-01-01T12:10:17;7.03;;;2.28;;
13785;SDS011;47474;48.824;9.384;2023-01-01T12:12:48;4.95;;;2.25;;
13785;SDS011;47474;48.824;9.384;2023-01-01T12:15:17;4.10;;;1.95;;
13785;SDS011;47474;48.824;9.384;2023-01-01T12:17:48;4.35;;;2.22;;
13785;SDS011;47474;48.824;9.384;2023-01-01T12:20:18;5.93;;;2.10;;
13785;SDS011;47474;48.824;9.384;2023-01-01T12:22:50;4.13;;;2.45;;
13785;SDS011;47474;48.824;9.384;2023-01-01T12:25:20;5.65;;;2.08;;
13785;SDS011;47474;48.824;9.384;2023-01-01T12:27:53;2.05;;;1.88;;
13785;SDS011;47474;48.824;9.384;2023-01-01T12:30:26;3.72;;;2.17;;
13785;SDS011;47474;48.824;9.384;2023-01-01T12:33:16;3.05;;;2.00;;
13785;SDS011;47474;48.824;9.384;2023-01-01T12:35:54;6.80;;;2.70;;
13785;SDS011;47474;48.824;9.384;2023-01-01T12:38:35;4.65;;;2.03;;
13785;SDS011;47474;48.824;9.384;2023-01-01T12:41:12;8.30;;;2.00;;
13785;SDS011;47474;48.824;9.384;2023-01-01T12:43:43;3.92;;;1.90;;
13785;SDS011;47474;48.824;9.384;2023-01-01T12:46:17;5.20;;;2.33;;
13785;SDS011;47474;48.824;9.384;2023-01-01T12:49:02;3.15;;;2.25;;
13785;SDS011;47474;48.824;9.384;2023-01-01T12:51:46;4.57;;;2.05;;
13785;SDS011;47474;48.824;9.384;2023-01-01T12:57:16;4.97;;;2.38;;
13785;SDS011;47474;48.824;9.384;2023-01-01T12:59:48;3.38;;;2.22;;
13785;SDS011;47474;48.824;9.384;2023-01-01T13:02:17;2.20;;;1.58;;
13785;SDS011;47474;48.824;9.384;2023-01-01T13:04:46;4.70;;;1.88;;
13785;SDS011;47474;48.824;9.384;2023-01-01T13:07:14;2.17;;;1.60;;
13785;SDS011;47474;48.824;9.384;2023-01-01T13:09:45;4.25;;;2.05;;
13785;SDS011;47474;48.824;9.384;2023-01-01T13:12:13;4.03;;;2.13;;
13785;SDS011;47474;48.824;9.384;2023-01-01T13:14:41;3.50;;;2.03;;
13785;SDS011;47474;48.824;9.384;2023-01-01T13:17:16;4.75;;;2.13;;
13785;SDS011;47474;48.824;9.384;2023-01-01T13:19:44;6.60;;;2.45;;
13785;SDS011;47474;48.824;9.384;2023-01-01T13:25:16;4.13;;;2.15;;
13785;SDS011;47474;48.824;9.384;2023-01-01T13:33:19;3.58;;;2.58;;
13785;SDS011;47474;48.824;9.384;2023-01-01T13:38:56;2.78;;;2.00;;
13785;SDS011;47474;48.824;9.384;2023-01-01T13:41:32;3.78;;;2.45;;
13785;SDS011;47474;48.824;9.384;2023-01-01T13:44:13;3.25;;;2.38;;
13785;SDS011;47474;48.824;9.384;2023-01-01T13:46:49;3.83;;;2.38;;
13785;SDS011;47474;48.824;9.384;2023-01-01T13:49:30;3.92;;;2.42;;
13785;SDS011;47474;48.824;9.384;2023-01-01T13:52:05;4.53;;;2.35;;
13785;SDS011;47474;48.824;9.384;2023-01-01T13:54:57;7.13;;;2.58;;
13785;SDS011;47474;48.824;9.384;2023-01-01T14:00:44;6.28;;;4.40;;
13785;SDS011;47474;48.824;9.384;2023-01-01T14:03:23;4.30;;;2.97;;
13785;SDS011;47474;48.824;9.384;2023-01-01T14:05:53;4.38;;;3.28;;
13785;SDS011;47474;48.824;9.384;2023-01-01T14:08:27;3.55;;;2.60;;
13785;SDS011;47474;48.824;9.384;2023-01-01T14:10:56;6.45;;;2.60;;
13785;SDS011;47474;48.824;9.384;2023-01-01T14:13:24;4.68;;;2.97;;
13785;SDS011;47474;48.824;9.384;2023-01-01T14:15:53;7.25;;;3.13;;
13785;SDS011;47474;48.824;9.384;2023-01-01T14:18:22;5.13;;;3.00;;
13785;SDS011;47474;48.824;9.384;2023-01-01T14:20:58;5.07;;;2.47;;
13785;SDS011;47474;48.824;9.384;2023-01-01T14:23:26;4.43;;;2.50;;
13785;SDS011;47474;48.824;9.384;2023-01-01T14:25:57;5.22;;;2.70;;
13785;SDS011;47474;48.824;9.384;2023-01-01T14:28:24;5.28;;;2.72;;
13785;SDS011;47474;48.824;9.384;2023-01-01T14:30:52;4.35;;;2.67;;
13785;SDS011;47474;48.824;9.384;2023-01-01T14:33:22;5.05;;;2.95;;
13785;SDS011;47474;48.824;9.384;2023-01-01T14:35:50;4.65;;;2.10;;
13785;SDS011;47474;48.824;9.384;2023-01-01T14:38:22;3.88;;;2.90;;
13785;SDS011;47474;48.824;9.384;2023-01-01T14:40:59;5.65;;;3.00;;
13785;SDS011;47474;48.824;9.384;2023-01-01T14:43:33;3.83;;;2.25;;
13785;SDS011;47474;48.824;9.384;2023-01-01T14:46:01;5.63;;;2.67;;
13785;SDS011;47474;48.824;9.384;2023-01-01T14:48:27;5.05;;;2.25;;
13785;SDS011;47474;48.824;9.384;2023-01-01T14:50:54;4.50;;;2.42;;
13785;SDS011;47474;48.824;9.384;2023-01-01T14:53:22;2.42;;;2.15;;
13785;SDS011;47474;48.824;9.384;2023-01-01T14:55:54;4.75;;;2.95;;
13785;SDS011;47474;48.824;9.384;2023-01-01T14:58:23;5.15;;;2.40;;
13785;SDS011;47474;48.824;9.384;2023-01-01T15:00:51;3.50;;;2.58;;
13785;SDS011;47474;48.824;9.384;2023-01-01T15:03:18;5.45;;;2.42;;
13785;SDS011;47474;48.824;9.384;2023-01-01T15:05:55;5.82;;;2.50;;
13785;SDS011;47474;48.824;9.384;2023-01-01T15:08:23;4.35;;;2.22;;
13785;SDS011;47474;48.824;9.384;2023-01-01T15:10:51;5.28;;;2.75;;
13785;SDS011;47474;48.824;9.384;2023-01-01T15:13:18;2.58;;;2.05;;
13785;SDS011;47474;48.824;9.384;2023-01-01T15:15:48;3.85;;;2.80;;
13785;SDS011;47474;48.824;9.384;2023-01-01T15:21:06;4.50;;;2.60;;